createdAt,value
2023-05-30T00:01:37.283Z,1.55
2023-05-30T00:04:11.804Z,1.70
2023-05-30T00:06:44.896Z,1.70
2023-05-30T00:09:17.402Z,2.03
2023-05-30T00:11:50.632Z,1.33
2023-05-30T00:14:24.376Z,1.95
2023-05-30T00:16:57.806Z,1.67
2023-05-30T00:19:32.422Z,1.35
2023-05-30T00:22:05.527Z,1.65
2023-05-30T00:24:38.175Z,1.95
2023-05-30T00:27:11.945Z,1.85
2023-05-30T00:29:46.384Z,1.35
2023-05-30T00:32:18.982Z,1.90
2023-05-30T00:34:51.575Z,1.60
2023-05-30T00:37:24.132Z,2.22
2023-05-30T00:39:56.603Z,1.85
2023-05-30T00:42:29.252Z,1.88
2023-05-30T00:45:01.746Z,1.50
2023-05-30T00:47:34.784Z,1.77
2023-05-30T00:50:08.748Z,2.00
2023-05-30T00:52:41.419Z,1.77
2023-05-30T00:55:15.022Z,1.70
2023-05-30T00:57:48.279Z,1.70
2023-05-30T01:00:21.234Z,1.48
2023-05-30T01:02:58.487Z,1.45
2023-05-30T01:05:32.363Z,1.90
2023-05-30T01:08:05.043Z,1.73
2023-05-30T01:10:38.624Z,2.22
2023-05-30T01:13:23.374Z,2.28
2023-05-30T01:16:04.116Z,1.92
2023-05-30T01:18:45.075Z,1.52
2023-05-30T01:21:20.357Z,1.60
2023-05-30T01:24:20.286Z,1.55
2023-05-30T01:27:05.571Z,1.80
2023-05-30T01:29:40.608Z,1.45
2023-05-30T01:32:13.252Z,1.88
2023-05-30T01:34:45.986Z,2.00
2023-05-30T01:37:18.490Z,2.35
2023-05-30T01:39:51.171Z,1.88
2023-05-30T01:42:24.904Z,1.88
2023-05-30T01:45:12.212Z,1.52
2023-05-30T01:48:00.081Z,2.28
2023-05-30T01:50:38.599Z,1.83
2023-05-30T01:53:15.420Z,1.63
2023-05-30T01:55:52.022Z,2.00
2023-05-30T01:58:25.136Z,1.80
2023-05-30T02:00:59.705Z,2.03
2023-05-30T02:03:32.511Z,1.48
2023-05-30T02:06:05.345Z,1.50
2023-05-30T02:08:37.903Z,2.17
2023-05-30T02:11:11.462Z,2.03
2023-05-30T02:13:45.529Z,1.75
2023-05-30T02:16:19.574Z,2.30
2023-05-30T02:18:53.789Z,1.98
2023-05-30T02:21:26.373Z,2.15
2023-05-30T02:23:58.891Z,1.90
2023-05-30T02:26:31.326Z,1.98
2023-05-30T02:29:03.941Z,1.50
2023-05-30T02:31:36.438Z,2.42
2023-05-30T02:34:08.948Z,4.18
2023-05-30T02:36:41.365Z,1.67
2023-05-30T02:39:13.918Z,1.92
2023-05-30T02:41:46.489Z,2.10
2023-05-30T02:44:18.980Z,2.13
2023-05-30T02:46:51.868Z,2.00
2023-05-30T02:49:24.299Z,1.70
2023-05-30T02:51:56.763Z,2.70
2023-05-30T02:54:29.318Z,1.92
2023-05-30T02:57:02.878Z,2.53
2023-05-30T02:59:35.418Z,2.15
2023-05-30T03:02:07.919Z,1.58
2023-05-30T03:04:46.603Z,2.20
2023-05-30T03:07:19.373Z,1.83
2023-05-30T03:09:51.909Z,2.17
2023-05-30T03:12:24.438Z,2.03
2023-05-30T03:14:57.090Z,2.22
2023-05-30T03:17:29.516Z,2.47
2023-05-30T03:20:02.307Z,2.10
2023-05-30T03:22:35.753Z,2.00
2023-05-30T03:25:09.345Z,3.03
2023-05-30T03:27:42.498Z,2.08
2023-05-30T03:30:15.831Z,2.35
2023-05-30T03:32:49.737Z,2.40
2023-05-30T03:35:22.334Z,2.30
2023-05-30T03:37:54.769Z,2.10
2023-05-30T03:40:27.220Z,2.22
2023-05-30T03:43:00.565Z,2.17
2023-05-30T03:45:33.283Z,1.90
2023-05-30T03:48:06.060Z,2.35
2023-05-30T03:50:38.659Z,2.30
2023-05-30T03:53:11.173Z,2.53
2023-05-30T03:55:43.715Z,2.38
2023-05-30T03:58:16.173Z,2.33
2023-05-30T04:00:48.641Z,2.20
2023-05-30T04:03:21.292Z,2.40
2023-05-30T04:05:54.396Z,2.83
2023-05-30T04:08:26.829Z,2.00
2023-05-30T04:10:59.499Z,2.30
2023-05-30T04:13:32.158Z,2.00
2023-05-30T04:16:04.807Z,2.10
2023-05-30T04:18:44.493Z,2.95
2023-05-30T04:21:17.040Z,3.08
2023-05-30T04:23:49.530Z,2.50
2023-05-30T04:26:26.425Z,2.35
2023-05-30T04:28:58.972Z,2.60
2023-05-30T04:31:31.556Z,2.03
2023-05-30T04:34:04.199Z,2.08
2023-05-30T04:36:38.029Z,2.08
2023-05-30T04:39:10.495Z,2.88
2023-05-30T04:41:42.983Z,2.35
2023-05-30T04:44:15.501Z,2.92
2023-05-30T04:46:47.979Z,2.65
2023-05-30T04:49:20.559Z,2.17
2023-05-30T04:51:53.007Z,2.83
2023-05-30T04:54:28.283Z,2.13
2023-05-30T04:57:00.690Z,2.20
2023-05-30T04:59:33.246Z,2.53
2023-05-30T05:02:06.141Z,2.50
2023-05-30T05:04:38.968Z,2.45
2023-05-30T05:07:11.709Z,2.55
2023-05-30T05:09:44.325Z,2.58
2023-05-30T05:12:17.027Z,2.80
2023-05-30T05:14:51.354Z,2.75
2023-05-30T05:17:24.266Z,2.33
2023-05-30T05:19:58.132Z,3.08
2023-05-30T05:22:32.712Z,2.92
2023-05-30T05:25:05.982Z,2.58
2023-05-30T05:27:40.660Z,3.13
2023-05-30T05:30:13.727Z,2.97
2023-05-30T05:32:47.057Z,2.53
2023-05-30T05:35:19.828Z,2.83
2023-05-30T05:37:52.385Z,2.60
2023-05-30T05:40:25.095Z,2.72
2023-05-30T05:42:57.577Z,3.13
2023-05-30T05:45:30.179Z,2.45
2023-05-30T05:48:02.893Z,2.50
2023-05-30T05:50:35.673Z,2.22
2023-05-30T05:53:08.165Z,2.38
2023-05-30T05:55:40.649Z,2.90
2023-05-30T05:58:13.886Z,2.20
2023-05-30T06:00:46.592Z,2.20
2023-05-30T06:03:19.364Z,2.72
2023-05-30T06:05:52.036Z,3.15
2023-05-30T06:08:24.488Z,2.40
2023-05-30T06:10:57.177Z,2.47
2023-05-30T06:13:29.744Z,2.30
2023-05-30T06:16:02.300Z,2.75
2023-05-30T06:18:34.837Z,2.33
2023-05-30T06:21:07.863Z,3.20
2023-05-30T06:23:40.468Z,2.78
2023-05-30T06:26:13.000Z,2.47
2023-05-30T06:28:50.220Z,2.53
2023-05-30T06:31:22.789Z,2.42
2023-05-30T06:33:55.426Z,2.47
2023-05-30T06:36:27.965Z,2.65
2023-05-30T06:39:00.511Z,3.33
2023-05-30T06:41:35.782Z,2.47
2023-05-30T06:44:08.250Z,3.22
2023-05-30T06:46:40.898Z,1.92
2023-05-30T06:49:13.386Z,2.70
2023-05-30T06:51:45.952Z,2.88
2023-05-30T06:54:18.408Z,2.78
2023-05-30T06:56:51.767Z,2.83
2023-05-30T06:59:24.183Z,2.55
2023-05-30T07:01:57.084Z,2.40
2023-05-30T07:04:29.752Z,2.83
2023-05-30T07:07:02.315Z,2.70
2023-05-30T07:09:34.969Z,2.83
2023-05-30T07:12:07.978Z,2.50
2023-05-30T07:14:41.060Z,2.85
2023-05-30T07:17:13.557Z,2.65
2023-05-30T07:19:46.418Z,2.50
2023-05-30T07:22:19.115Z,2.55
2023-05-30T07:24:51.588Z,2.63
2023-05-30T07:27:24.453Z,3.17
2023-05-30T07:29:56.904Z,2.60
2023-05-30T07:32:29.540Z,2.90
2023-05-30T07:35:02.075Z,2.75
2023-05-30T07:37:37.924Z,2.40
2023-05-30T07:40:10.704Z,3.10
2023-05-30T07:42:43.133Z,2.38
2023-05-30T07:45:15.970Z,2.70
2023-05-30T07:47:48.522Z,3.03
2023-05-30T07:50:21.062Z,2.65
2023-05-30T07:52:53.535Z,3.47
2023-05-30T07:55:27.363Z,3.13
2023-05-30T07:57:59.925Z,2.53
2023-05-30T08:00:32.418Z,3.10
2023-05-30T08:03:04.991Z,3.13
2023-05-30T08:05:37.510Z,3.17
2023-05-30T08:08:09.981Z,3.00
2023-05-30T08:10:42.429Z,3.38
2023-05-30T08:13:15.612Z,3.08
2023-05-30T08:15:48.133Z,3.15
2023-05-30T08:18:22.197Z,2.90
2023-05-30T08:20:56.018Z,2.85
2023-05-30T08:23:28.767Z,3.40
2023-05-30T08:26:01.608Z,2.60
2023-05-30T08:28:34.465Z,3.00
2023-05-30T08:31:07.154Z,3.20
2023-05-30T08:33:39.767Z,3.05
2023-05-30T08:36:12.243Z,2.83
2023-05-30T08:38:44.712Z,2.80
2023-05-30T08:41:17.197Z,2.83
2023-05-30T08:43:50.826Z,2.72
2023-05-30T08:46:24.505Z,3.38
2023-05-30T08:48:57.189Z,3.35
2023-05-30T08:51:31.401Z,3.70
2023-05-30T08:54:06.213Z,3.00
2023-05-30T08:56:43.675Z,3.25
2023-05-30T08:59:20.220Z,3.00
2023-05-30T09:01:55.419Z,3.22
2023-05-30T09:04:28.601Z,2.75
2023-05-30T09:07:04.466Z,3.30
2023-05-30T09:09:37.210Z,3.08
2023-05-30T09:12:12.891Z,2.88
2023-05-30T09:17:19.224Z,3.00
2023-05-30T09:19:51.705Z,3.53
2023-05-30T09:22:26.116Z,3.63
2023-05-30T09:25:06.769Z,3.33
2023-05-30T09:27:39.455Z,4.03
2023-05-30T09:30:12.850Z,3.95
2023-05-30T09:33:04.491Z,3.42
2023-05-30T09:35:37.407Z,3.13
2023-05-30T09:38:09.848Z,3.70
2023-05-30T09:40:42.602Z,4.00
2023-05-30T09:43:16.246Z,3.17
2023-05-30T09:45:50.014Z,3.58
2023-05-30T09:48:22.609Z,3.65
2023-05-30T09:50:58.376Z,3.90
2023-05-30T09:53:33.580Z,3.60
2023-05-30T09:56:08.826Z,3.33
2023-05-30T09:58:41.714Z,4.03
2023-05-30T10:01:33.124Z,3.60
2023-05-30T10:04:15.578Z,4.50
2023-05-30T10:06:51.146Z,3.50
2023-05-30T10:11:58.129Z,3.80
2023-05-30T10:14:30.734Z,3.95
2023-05-30T10:17:08.502Z,3.75
2023-05-30T10:19:47.435Z,3.42
2023-05-30T10:22:22.091Z,3.33
2023-05-30T10:24:56.967Z,3.80
2023-05-30T10:27:33.924Z,4.00
2023-05-30T10:30:08.359Z,3.95
2023-05-30T10:32:45.748Z,3.80
2023-05-30T10:35:20.488Z,4.05
2023-05-30T10:37:53.970Z,3.42
2023-05-30T10:40:37.785Z,3.55
2023-05-30T10:43:13.216Z,3.75
2023-05-30T10:46:11.389Z,3.90
2023-05-30T10:48:54.749Z,3.63
2023-05-30T10:51:27.300Z,3.95
2023-05-30T10:54:00.817Z,3.45
2023-05-30T10:56:38.902Z,3.53
2023-05-30T10:59:16.086Z,4.00
2023-05-30T11:02:05.805Z,3.78
2023-05-30T11:04:46.586Z,4.03
2023-05-30T11:07:19.472Z,4.00
2023-05-30T11:10:09.114Z,4.15
2023-05-30T11:12:49.342Z,3.42
2023-05-30T11:15:35.510Z,3.70
2023-05-30T11:18:19.186Z,4.00
2023-05-30T11:20:56.328Z,3.28
2023-05-30T11:23:30.519Z,4.20
2023-05-30T11:26:03.507Z,4.47
2023-05-30T11:28:37.125Z,3.78
2023-05-30T11:31:20.678Z,3.97
2023-05-30T11:33:54.333Z,3.60
2023-05-30T11:36:26.954Z,4.00
2023-05-30T11:39:00.068Z,4.00
2023-05-30T11:41:32.626Z,3.83
2023-05-30T11:44:05.563Z,3.25
2023-05-30T11:46:38.239Z,4.50
2023-05-30T11:49:10.833Z,4.57
2023-05-30T11:51:43.642Z,4.40
2023-05-30T11:54:16.322Z,3.88
2023-05-30T11:56:52.847Z,4.07
2023-05-30T11:59:27.717Z,3.60
2023-05-30T12:02:01.499Z,3.42
2023-05-30T12:04:36.204Z,3.65
2023-05-30T12:07:10.041Z,3.30
2023-05-30T12:09:42.869Z,3.35
2023-05-30T12:12:16.166Z,3.75
2023-05-30T12:14:51.494Z,3.55
2023-05-30T12:20:00.690Z,2.65
2023-05-30T12:22:33.390Z,3.38
2023-05-30T12:25:10.200Z,3.72
2023-05-30T12:27:44.543Z,3.20
2023-05-30T12:30:19.154Z,4.00
2023-05-30T12:32:51.718Z,3.83
2023-05-30T12:35:27.764Z,3.72
2023-05-30T12:38:01.372Z,3.33
2023-05-30T12:40:35.303Z,4.28
2023-05-30T12:43:07.938Z,3.42
2023-05-30T12:45:44.302Z,3.97
2023-05-30T12:48:16.883Z,3.28
2023-05-30T12:50:49.678Z,3.47
2023-05-30T12:53:22.092Z,3.13
2023-05-30T12:55:54.735Z,3.53
2023-05-30T12:58:27.218Z,3.22
2023-05-30T13:01:00.259Z,3.20
2023-05-30T13:03:32.979Z,3.28
2023-05-30T13:06:07.126Z,3.08
2023-05-30T13:08:39.615Z,3.05
2023-05-30T13:11:12.214Z,3.38
2023-05-30T13:13:44.705Z,3.35
2023-05-30T13:16:17.365Z,2.75
2023-05-30T13:18:49.843Z,3.33
2023-05-30T13:21:23.546Z,2.92
2023-05-30T13:23:56.531Z,2.90
2023-05-30T13:26:28.997Z,3.05
2023-05-30T13:29:07.706Z,3.20
2023-05-30T13:31:40.353Z,2.80
2023-05-30T13:34:13.329Z,2.92
2023-05-30T13:36:46.545Z,2.53
2023-05-30T13:39:19.409Z,2.80
2023-05-30T13:41:51.943Z,2.75
2023-05-30T13:44:24.463Z,3.35
2023-05-30T13:46:57.023Z,2.40
2023-05-30T13:49:34.180Z,2.70
2023-05-30T13:52:10.981Z,2.63
2023-05-30T13:54:43.508Z,2.85
2023-05-30T13:57:16.889Z,3.75
2023-05-30T13:59:49.366Z,2.70
2023-05-30T14:02:22.615Z,3.10
2023-05-30T14:04:58.296Z,2.42
2023-05-30T14:07:31.118Z,2.30
2023-05-30T14:10:04.456Z,3.28
2023-05-30T14:12:37.174Z,2.67
2023-05-30T14:15:10.129Z,2.80
2023-05-30T14:17:43.484Z,2.80
2023-05-30T14:20:16.299Z,2.90
2023-05-30T14:22:48.827Z,2.70
2023-05-30T14:25:21.348Z,2.47
2023-05-30T14:27:53.891Z,3.42
2023-05-30T14:30:26.826Z,2.60
2023-05-30T14:33:01.537Z,3.00
2023-05-30T14:35:35.603Z,2.53
2023-05-30T14:38:09.072Z,2.28
2023-05-30T14:40:43.266Z,3.10
2023-05-30T14:43:15.849Z,3.00
2023-05-30T14:45:48.532Z,3.30
2023-05-30T14:48:21.208Z,3.25
2023-05-30T14:50:53.663Z,3.55
2023-05-30T14:53:26.246Z,3.38
2023-05-30T14:55:59.214Z,3.33
2023-05-30T14:58:32.918Z,2.75
2023-05-30T15:01:24.680Z,3.30
2023-05-30T15:03:59.467Z,3.58
2023-05-30T15:06:32.259Z,3.10
2023-05-30T15:09:04.768Z,3.45
2023-05-30T15:11:37.277Z,4.28
2023-05-30T15:14:09.844Z,2.90
2023-05-30T15:16:42.500Z,3.13
2023-05-30T15:19:14.998Z,3.28
2023-05-30T15:21:47.515Z,3.05
2023-05-30T15:24:20.081Z,2.75
2023-05-30T15:26:52.610Z,3.60
2023-05-30T15:29:25.502Z,2.83
2023-05-30T15:31:58.184Z,3.10
2023-05-30T15:34:30.769Z,2.63
2023-05-30T15:37:03.765Z,3.17
2023-05-30T15:39:36.360Z,2.88
2023-05-30T15:42:09.051Z,2.53
2023-05-30T15:44:41.594Z,2.78
2023-05-30T15:47:14.166Z,2.85
2023-05-30T15:49:46.657Z,2.65
2023-05-30T15:52:19.152Z,2.92
2023-05-30T15:54:51.693Z,2.90
2023-05-30T15:57:25.278Z,3.15
2023-05-30T15:59:57.743Z,3.13
2023-05-30T16:02:30.690Z,3.80
2023-05-30T16:05:04.161Z,4.00
2023-05-30T16:07:38.081Z,3.03
2023-05-30T16:10:10.737Z,3.30
2023-05-30T16:12:43.211Z,3.40
2023-05-30T16:15:15.722Z,3.00
2023-05-30T16:17:48.881Z,2.80
2023-05-30T16:20:21.582Z,2.67
2023-05-30T16:22:54.248Z,3.00
2023-05-30T16:25:27.485Z,3.05
2023-05-30T16:27:59.983Z,2.88
2023-05-30T16:30:32.460Z,2.97
2023-05-30T16:33:05.250Z,2.63
2023-05-30T16:35:37.804Z,3.45
2023-05-30T16:38:10.852Z,3.47
2023-05-30T16:40:43.803Z,2.97
2023-05-30T16:43:16.499Z,3.05
2023-05-30T16:45:49.062Z,3.08
2023-05-30T16:48:21.572Z,2.95
2023-05-30T16:50:54.176Z,2.67
2023-05-30T16:53:26.801Z,3.80
2023-05-30T16:55:59.802Z,2.72
2023-05-30T16:58:32.328Z,2.95
2023-05-30T17:01:05.620Z,3.40
2023-05-30T17:03:38.269Z,2.83
2023-05-30T17:06:11.418Z,3.05
2023-05-30T17:08:43.936Z,3.22
2023-05-30T17:11:16.516Z,3.10
2023-05-30T17:13:49.049Z,2.80
2023-05-30T17:16:21.775Z,3.10
2023-05-30T17:18:54.350Z,2.97
2023-05-30T17:21:26.958Z,2.80
2023-05-30T17:24:02.702Z,2.95
2023-05-30T17:26:36.830Z,2.45
2023-05-30T17:29:09.433Z,2.85
2023-05-30T17:31:42.101Z,2.65
2023-05-30T17:34:14.591Z,2.72
2023-05-30T17:36:47.038Z,3.08
2023-05-30T17:39:19.611Z,2.97
2023-05-30T17:41:52.064Z,2.83
2023-05-30T17:44:24.507Z,3.08
2023-05-30T17:46:57.000Z,2.30
2023-05-30T17:49:29.940Z,2.17
2023-05-30T17:52:02.568Z,2.67
2023-05-30T17:54:35.082Z,2.80
2023-05-30T17:57:08.216Z,2.80
2023-05-30T17:59:40.738Z,2.22
2023-05-30T18:02:13.359Z,2.53
2023-05-30T18:04:45.858Z,2.70
2023-05-30T18:07:19.434Z,2.40
2023-05-30T18:09:54.668Z,2.88
2023-05-30T18:12:27.587Z,2.20
2023-05-30T18:15:00.065Z,2.70
2023-05-30T18:17:32.583Z,2.50
2023-05-30T18:20:06.764Z,2.58
2023-05-30T18:22:39.828Z,2.47
2023-05-30T18:25:15.072Z,2.33
2023-05-30T18:27:47.780Z,2.40
2023-05-30T18:30:20.400Z,2.45
2023-05-30T18:32:56.179Z,2.60
2023-05-30T18:35:29.013Z,3.10
2023-05-30T18:38:02.070Z,2.40
2023-05-30T18:40:34.706Z,2.30
2023-05-30T18:43:07.187Z,2.30
2023-05-30T18:45:39.746Z,2.22
2023-05-30T18:48:12.409Z,2.58
2023-05-30T18:50:45.820Z,3.08
2023-05-30T18:53:18.304Z,2.60
2023-05-30T18:55:50.995Z,2.38
2023-05-30T18:58:23.505Z,2.28
2023-05-30T19:00:56.070Z,3.17
2023-05-30T19:03:30.328Z,2.45
2023-05-30T19:06:05.253Z,2.25
2023-05-30T19:08:40.393Z,2.28
2023-05-30T19:11:16.255Z,2.53
2023-05-30T19:13:48.738Z,3.42
2023-05-30T19:16:21.371Z,2.05
2023-05-30T19:18:55.166Z,2.35
2023-05-30T19:21:30.190Z,2.65
2023-05-30T19:24:02.630Z,2.33
2023-05-30T19:26:35.323Z,2.33
2023-05-30T19:29:07.725Z,2.45
2023-05-30T19:31:40.648Z,2.35
2023-05-30T19:34:13.207Z,2.30
2023-05-30T19:36:45.769Z,2.78
2023-05-30T19:39:18.520Z,3.00
2023-05-30T19:41:51.062Z,2.20
2023-05-30T19:44:23.539Z,2.40
2023-05-30T19:46:56.336Z,2.53
2023-05-30T19:49:30.765Z,2.25
2023-05-30T19:52:03.691Z,2.50
2023-05-30T19:54:36.202Z,2.33
2023-05-30T19:57:08.767Z,2.40
2023-05-30T19:59:41.275Z,2.40
2023-05-30T20:02:13.765Z,1.75
2023-05-30T20:04:46.478Z,2.47
2023-05-30T20:07:18.980Z,2.30
2023-05-30T20:09:51.568Z,2.35
2023-05-30T20:12:24.220Z,2.10
2023-05-30T20:14:56.702Z,2.47
2023-05-30T20:17:29.439Z,2.10
2023-05-30T20:20:04.214Z,2.35
2023-05-30T20:22:36.764Z,2.00
2023-05-30T20:25:09.664Z,2.60
2023-05-30T20:27:42.179Z,2.13
2023-05-30T20:30:15.778Z,1.98
2023-05-30T20:32:48.322Z,2.30
2023-05-30T20:35:21.099Z,2.20
2023-05-30T20:37:53.616Z,2.05
2023-05-30T20:40:26.437Z,2.25
2023-05-30T20:42:58.910Z,2.20
2023-05-30T20:45:31.734Z,2.00
2023-05-30T20:48:04.385Z,2.25
2023-05-30T20:50:36.965Z,2.55
2023-05-30T20:53:09.461Z,2.22
2023-05-30T20:55:42.448Z,2.53
2023-05-30T20:58:18.012Z,2.42
2023-05-30T21:00:50.871Z,2.63
2023-05-30T21:03:23.532Z,2.58
2023-05-30T21:05:56.179Z,2.25
2023-05-30T21:08:28.691Z,2.60
2023-05-30T21:11:01.484Z,2.40
2023-05-30T21:13:34.191Z,2.53
2023-05-30T21:16:07.041Z,2.80
2023-05-30T21:18:39.756Z,2.53
2023-05-30T21:21:12.163Z,2.42
2023-05-30T21:23:44.670Z,2.42
2023-05-30T21:26:17.093Z,2.63
2023-05-30T21:28:49.565Z,2.38
2023-05-30T21:31:22.569Z,2.60
2023-05-30T21:33:55.726Z,2.88
2023-05-30T21:36:28.324Z,2.78
2023-05-30T21:39:00.878Z,2.80
2023-05-30T21:41:33.341Z,3.05
2023-05-30T21:44:06.429Z,2.72
2023-05-30T21:46:39.108Z,3.05
2023-05-30T21:49:11.914Z,2.90
2023-05-30T21:51:44.494Z,2.88
2023-05-30T21:54:40.606Z,2.55
2023-05-30T21:57:15.393Z,2.78
2023-05-30T21:59:47.946Z,2.58
2023-05-30T22:02:20.477Z,3.20
2023-05-30T22:04:52.926Z,2.63
2023-05-30T22:07:26.475Z,3.80
2023-05-30T22:09:58.994Z,3.20
2023-05-30T22:12:31.621Z,3.28
2023-05-30T22:15:05.458Z,3.10
2023-05-30T22:17:40.288Z,2.80
2023-05-30T22:20:13.771Z,2.97
2023-05-30T22:22:46.506Z,2.95
2023-05-30T22:25:18.944Z,2.92
2023-05-30T22:27:51.390Z,2.90
2023-05-30T22:30:23.952Z,3.80
2023-05-30T22:32:56.592Z,3.10
2023-05-30T22:35:30.102Z,3.15
2023-05-30T22:38:02.555Z,3.38
2023-05-30T22:40:35.040Z,3.60
2023-05-30T22:43:07.458Z,3.13
2023-05-30T22:45:39.968Z,3.30
2023-05-30T22:48:12.463Z,3.95
2023-05-30T22:50:44.972Z,4.32
2023-05-30T22:53:17.426Z,3.55
2023-05-30T22:55:49.967Z,3.25
2023-05-30T22:58:22.414Z,3.10
2023-05-30T23:00:54.909Z,3.47
2023-05-30T23:03:27.717Z,3.33
2023-05-30T23:06:00.525Z,3.78
2023-05-30T23:08:32.925Z,3.88
2023-05-30T23:11:05.543Z,3.25
2023-05-30T23:13:38.141Z,3.25
2023-05-30T23:16:10.798Z,2.95
2023-05-30T23:18:43.362Z,3.00
2023-05-30T23:21:15.960Z,3.17
2023-05-30T23:23:48.410Z,3.65
2023-05-30T23:26:21.312Z,2.90
2023-05-30T23:28:53.789Z,3.00
2023-05-30T23:31:26.926Z,2.85
2023-05-30T23:33:59.533Z,3.35
2023-05-30T23:36:32.037Z,3.47
2023-05-30T23:39:04.469Z,3.55
2023-05-30T23:41:37.076Z,3.17
2023-05-30T23:44:09.685Z,3.67
2023-05-30T23:46:42.203Z,3.53
2023-05-30T23:49:16.400Z,3.95
2023-05-30T23:51:48.902Z,3.80
2023-05-30T23:54:22.368Z,3.38
2023-05-30T23:56:54.879Z,3.00
2023-05-30T23:59:27.449Z,3.30
